createdAt,value
2023-12-03T00:01:48.093Z,100056.38
2023-12-03T00:04:52.332Z,100063.34
2023-12-03T00:07:54.928Z,100059.25
2023-12-03T00:10:57.363Z,100060.91
2023-12-03T00:13:59.750Z,100058.00
2023-12-03T00:17:02.182Z,100061.34
2023-12-03T00:20:04.973Z,100058.44
2023-12-03T00:23:07.381Z,100058.22
2023-12-03T00:26:09.786Z,100060.72
2023-12-03T00:29:12.727Z,100051.88
2023-12-03T00:32:15.086Z,100063.38
2023-12-03T00:35:17.456Z,100070.19
2023-12-03T00:38:19.807Z,100072.84
2023-12-03T00:41:22.281Z,100074.50
2023-12-03T00:44:24.713Z,100076.94
2023-12-03T00:47:27.287Z,100075.53
2023-12-03T00:50:29.724Z,100071.00
2023-12-03T00:53:32.094Z,100078.81
2023-12-03T00:56:34.426Z,100076.16
2023-12-03T00:59:36.905Z,100079.22
2023-12-03T01:02:39.290Z,100084.16
2023-12-03T01:05:41.825Z,100083.34
2023-12-03T01:08:44.219Z,100084.56
2023-12-03T01:11:46.653Z,100090.09
2023-12-03T01:14:49.001Z,100090.09
2023-12-03T01:17:51.457Z,100095.09
2023-12-03T01:20:53.792Z,100088.06
2023-12-03T01:23:56.127Z,100098.16
2023-12-03T01:26:58.484Z,100097.97
2023-12-03T01:30:00.888Z,100106.81
2023-12-03T01:33:03.389Z,100098.75
2023-12-03T01:36:06.129Z,100109.28
2023-12-03T01:39:08.606Z,100108.03
2023-12-03T01:42:11.024Z,100105.78
2023-12-03T01:45:13.493Z,100114.41
2023-12-03T01:48:16.222Z,100109.28
2023-12-03T01:51:19.095Z,100111.53
2023-12-03T01:54:21.692Z,100119.75
2023-12-03T01:57:24.449Z,100123.47
2023-12-03T02:00:26.992Z,100122.44
2023-12-03T02:03:30.250Z,100136.47
2023-12-03T02:06:32.854Z,100128.00
2023-12-03T02:09:35.477Z,100131.44
2023-12-03T02:12:38.795Z,100129.78
2023-12-03T02:15:41.370Z,100137.44
2023-12-03T02:18:44.252Z,100131.09
2023-12-03T02:21:46.724Z,100141.41
2023-12-03T02:24:49.096Z,100134.59
2023-12-03T02:27:51.494Z,100141.59
2023-12-03T02:30:54.037Z,100142.03
2023-12-03T02:34:22.810Z,100135.03
2023-12-03T02:37:25.193Z,100143.03
2023-12-03T02:40:27.770Z,100148.84
2023-12-03T02:43:30.207Z,100152.75
2023-12-03T02:46:32.664Z,100145.91
2023-12-03T02:49:35.113Z,100148.94
2023-12-03T02:52:37.678Z,100157.63
2023-12-03T02:55:40.037Z,100164.00
2023-12-03T02:58:42.774Z,100164.22
2023-12-03T03:01:45.185Z,100157.22
2023-12-03T03:04:47.881Z,100168.75
2023-12-03T03:07:50.270Z,100168.53
2023-12-03T03:10:52.791Z,100169.81
2023-12-03T03:13:55.164Z,100170.41
2023-12-03T03:16:57.549Z,100167.47
2023-12-03T03:19:59.921Z,100173.28
2023-12-03T03:23:02.337Z,100176.16
2023-12-03T03:26:04.871Z,100173.66
2023-12-03T03:29:07.775Z,100172.25
2023-12-03T03:32:10.285Z,100189.31
2023-12-03T03:35:12.870Z,100174.97
2023-12-03T03:38:15.275Z,100179.91
2023-12-03T03:41:17.628Z,100183.22
2023-12-03T03:44:19.958Z,100182.13
2023-12-03T03:47:22.330Z,100186.44
2023-12-03T03:50:24.711Z,100191.44
2023-12-03T03:53:27.257Z,100185.22
2023-12-03T03:56:29.648Z,100188.72
2023-12-03T03:59:32.006Z,100193.47
2023-12-03T04:02:34.460Z,100194.88
2023-12-03T04:05:36.980Z,100196.34
2023-12-03T04:08:40.955Z,100196.56
2023-12-03T04:11:43.527Z,100205.56
2023-12-03T04:14:46.036Z,100217.28
2023-12-03T04:17:48.504Z,100219.19
2023-12-03T04:20:51.216Z,100215.75
2023-12-03T04:23:53.502Z,100217.56
2023-12-03T04:26:55.828Z,100227.84
2023-12-03T04:29:58.444Z,100215.75
2023-12-03T04:33:00.948Z,100218.66
2023-12-03T04:36:08.812Z,100216.19
2023-12-03T04:39:11.299Z,100221.47
2023-12-03T04:42:13.693Z,100221.47
2023-12-03T04:45:16.220Z,100223.31
2023-12-03T04:48:18.637Z,100215.78
2023-12-03T04:51:21.060Z,100226.50
2023-12-03T04:54:23.792Z,100226.53
2023-12-03T04:57:26.379Z,100230.72
2023-12-03T05:00:28.717Z,100237.59
2023-12-03T05:03:31.376Z,100238.44
2023-12-03T05:06:33.910Z,100235.56
2023-12-03T05:09:41.207Z,100242.78
2023-12-03T05:12:44.143Z,100245.88
2023-12-03T05:15:46.646Z,100237.41
2023-12-03T05:18:49.496Z,100251.44
2023-12-03T05:21:52.002Z,100255.19
2023-12-03T05:24:54.451Z,100261.38
2023-12-03T05:27:56.805Z,100271.03
2023-12-03T05:30:59.084Z,100268.09
2023-12-03T05:34:01.572Z,100276.13
2023-12-03T05:37:05.160Z,100273.31
2023-12-03T05:40:10.135Z,100279.25
2023-12-03T05:43:12.462Z,100297.34
2023-12-03T05:46:14.850Z,100296.09
2023-12-03T05:49:17.231Z,100303.34
2023-12-03T05:52:19.639Z,100316.72
2023-12-03T05:55:21.995Z,100313.63
2023-12-03T05:58:24.648Z,100315.69
2023-12-03T06:01:27.230Z,100313.25
2023-12-03T06:04:29.568Z,100323.28
2023-12-03T06:07:31.940Z,100325.41
2023-12-03T06:10:34.295Z,100338.34
2023-12-03T06:13:36.785Z,100337.69
2023-12-03T06:16:39.406Z,100343.28
2023-12-03T06:19:41.860Z,100342.06
2023-12-03T06:22:44.288Z,100342.22
2023-12-03T06:25:46.544Z,100352.16
2023-12-03T06:28:48.985Z,100363.25
2023-12-03T06:31:51.376Z,100359.53
2023-12-03T06:34:53.686Z,100365.13
2023-12-03T06:37:56.033Z,100357.66
2023-12-03T06:40:58.454Z,100368.03
2023-12-03T06:44:01.028Z,100370.69
2023-12-03T06:47:03.424Z,100370.09
2023-12-03T06:50:06.669Z,100379.66
2023-12-03T06:53:09.023Z,100385.25
2023-12-03T06:56:12.442Z,100381.97
2023-12-03T06:59:14.827Z,100378.50
2023-12-03T07:02:19.397Z,100404.31
2023-12-03T07:05:21.838Z,100412.81
2023-12-03T07:08:24.154Z,100412.81
2023-12-03T07:11:27.411Z,100418.63
2023-12-03T07:14:29.775Z,100413.03
2023-12-03T07:17:32.158Z,100425.34
2023-12-03T07:20:34.553Z,100430.75
2023-12-03T07:23:36.884Z,100426.03
2023-12-03T07:26:39.199Z,100432.19
2023-12-03T07:29:41.536Z,100433.38
2023-12-03T07:32:43.896Z,100439.03
2023-12-03T07:35:46.322Z,100436.69
2023-12-03T07:38:48.735Z,100441.41
2023-12-03T07:41:54.784Z,100442.28
2023-12-03T07:44:57.194Z,100442.97
2023-12-03T07:47:59.622Z,100447.53
2023-12-03T07:51:02.136Z,100452.59
2023-12-03T07:54:04.603Z,100451.97
2023-12-03T07:57:07.136Z,100458.88
2023-12-03T08:00:09.801Z,100455.06
2023-12-03T08:03:14.711Z,100453.91
2023-12-03T08:06:17.119Z,100451.84
2023-12-03T08:09:19.626Z,100464.50
2023-12-03T08:12:22.157Z,100467.78
2023-12-03T08:15:24.613Z,100477.06
2023-12-03T08:18:27.082Z,100466.19
2023-12-03T08:21:31.439Z,100470.81
2023-12-03T08:24:33.825Z,100472.25
2023-12-03T08:27:36.261Z,100473.97
2023-12-03T08:30:39.784Z,100477.50
2023-12-03T08:33:42.336Z,100488.09
2023-12-03T08:36:45.053Z,100489.47
2023-12-03T08:39:47.486Z,100491.19
2023-12-03T08:42:49.999Z,100488.97
2023-12-03T08:45:52.356Z,100489.75
2023-12-03T08:48:54.826Z,100503.75
2023-12-03T08:51:57.390Z,100498.31
2023-12-03T08:55:01.267Z,100514.41
2023-12-03T08:58:03.614Z,100509.66
2023-12-03T09:01:06.153Z,100514.94
2023-12-03T09:04:08.677Z,100514.47
2023-12-03T09:07:11.022Z,100516.53
2023-12-03T09:10:13.361Z,100522.22
2023-12-03T09:13:15.861Z,100520.53
2023-12-03T09:16:18.396Z,100517.50
2023-12-03T09:19:21.150Z,100519.50
2023-12-03T09:22:23.562Z,100514.75
2023-12-03T09:25:25.850Z,100520.13
2023-12-03T09:28:31.353Z,100520.94
2023-12-03T09:31:33.844Z,100517.56
2023-12-03T09:34:36.269Z,100517.47
2023-12-03T09:37:38.715Z,100534.06
2023-12-03T09:40:41.051Z,100519.13
2023-12-03T09:43:47.050Z,100535.69
2023-12-03T09:46:52.155Z,100535.03
2023-12-03T09:49:59.254Z,100534.75
2023-12-03T09:53:04.250Z,100536.50
2023-12-03T09:56:07.204Z,100537.53
2023-12-03T09:59:14.453Z,100536.59
2023-12-03T10:02:18.371Z,100537.59
2023-12-03T10:05:20.876Z,100539.00
2023-12-03T10:08:23.384Z,100524.41
2023-12-03T10:11:27.328Z,100525.19
2023-12-03T10:14:30.123Z,100529.56
2023-12-03T10:17:32.553Z,100521.66
2023-12-03T10:20:34.966Z,100520.50
2023-12-03T10:23:37.853Z,100510.72
2023-12-03T10:26:54.010Z,100527.63
2023-12-03T10:29:56.373Z,100531.53
2023-12-03T10:32:59.040Z,100516.84
2023-12-03T10:36:04.966Z,100528.19
2023-12-03T10:39:13.889Z,100523.31
2023-12-03T10:42:16.287Z,100529.59
2023-12-03T10:45:18.873Z,100531.53
2023-12-03T10:48:22.179Z,100535.91
2023-12-03T10:51:24.779Z,100533.75
2023-12-03T10:54:27.735Z,100534.72
2023-12-03T10:57:32.476Z,100534.00
2023-12-03T11:00:41.776Z,100544.66
2023-12-03T11:03:51.401Z,100542.16
2023-12-03T11:06:56.924Z,100535.56
2023-12-03T11:09:59.599Z,100547.84
2023-12-03T11:13:02.166Z,100543.81
2023-12-03T11:16:06.526Z,100545.16
2023-12-03T11:19:13.535Z,100550.16
2023-12-03T11:22:21.626Z,100546.38
2023-12-03T11:25:29.546Z,100555.72
2023-12-03T11:28:32.907Z,100554.72
2023-12-03T11:31:35.280Z,100553.47
2023-12-03T11:34:38.684Z,100547.53
2023-12-03T11:37:44.858Z,100548.38
2023-12-03T11:40:47.497Z,100545.69
2023-12-03T11:43:50.881Z,100543.03
2023-12-03T11:47:02.396Z,100549.38
2023-12-03T11:50:05.506Z,100551.78
2023-12-03T11:53:09.518Z,100548.41
2023-12-03T11:56:13.103Z,100562.81
2023-12-03T11:59:15.772Z,100564.06
2023-12-03T12:02:18.396Z,100562.25
2023-12-03T12:05:20.970Z,100565.47
2023-12-03T12:08:24.645Z,100564.19
2023-12-03T12:11:27.083Z,100553.97
2023-12-03T12:14:29.493Z,100556.81
2023-12-03T12:17:33.349Z,100557.84
2023-12-03T12:20:35.905Z,100563.09
2023-12-03T12:23:38.736Z,100560.97
2023-12-03T12:26:41.087Z,100563.84
2023-12-03T12:29:43.474Z,100565.22
2023-12-03T12:32:47.097Z,100567.81
2023-12-03T12:35:52.664Z,100569.19
2023-12-03T12:38:55.141Z,100561.72
2023-12-03T12:42:00.843Z,100568.00
2023-12-03T12:45:04.406Z,100564.41
2023-12-03T12:48:35.157Z,100573.31
2023-12-03T12:51:37.763Z,100598.13
2023-12-03T12:54:47.679Z,100587.34
2023-12-03T12:57:50.004Z,100594.69
2023-12-03T13:00:52.410Z,100586.31
2023-12-03T13:03:54.907Z,100586.66
2023-12-03T13:06:57.381Z,100584.81
2023-12-03T13:09:59.959Z,100583.59
2023-12-03T13:13:02.496Z,100584.75
2023-12-03T13:16:05.502Z,100587.47
2023-12-03T13:19:08.692Z,100581.78
2023-12-03T13:22:11.123Z,100584.38
2023-12-03T13:25:13.957Z,100583.00
2023-12-03T13:28:16.569Z,100589.72
2023-12-03T13:31:19.001Z,100608.88
2023-12-03T13:34:21.453Z,100605.16
2023-12-03T13:37:23.897Z,100616.19
2023-12-03T13:40:26.779Z,100615.09
2023-12-03T13:43:29.476Z,100608.00
2023-12-03T13:46:31.772Z,100611.47
2023-12-03T13:49:34.318Z,100618.91
2023-12-03T13:52:36.707Z,100631.44
2023-12-03T13:55:39.003Z,100624.16
2023-12-03T13:58:41.401Z,100626.31
2023-12-03T14:01:44.564Z,100629.19
2023-12-03T14:04:47.287Z,100636.22
2023-12-03T14:07:49.903Z,100627.28
2023-12-03T14:10:52.301Z,100627.56
2023-12-03T14:13:55.151Z,100625.63
2023-12-03T14:16:58.629Z,100628.22
2023-12-03T14:20:01.229Z,100631.97
2023-12-03T14:23:03.685Z,100632.97
2023-12-03T14:26:06.608Z,100638.16
2023-12-03T14:29:15.311Z,100641.66
2023-12-03T14:32:17.712Z,100640.53
2023-12-03T14:35:20.640Z,100636.25
2023-12-03T14:38:22.997Z,100637.34
2023-12-03T14:41:25.426Z,100635.78
2023-12-03T14:44:27.806Z,100641.22
2023-12-03T14:47:30.226Z,100657.72
2023-12-03T14:50:33.400Z,100659.31
2023-12-03T14:53:35.753Z,100649.56
2023-12-03T14:56:38.268Z,100644.22
2023-12-03T14:59:40.748Z,100642.97
2023-12-03T15:02:45.186Z,100641.66
2023-12-03T15:05:47.564Z,100639.28
2023-12-03T15:08:50.866Z,100641.50
2023-12-03T15:11:53.295Z,100647.34
2023-12-03T15:14:55.724Z,100661.38
2023-12-03T15:17:58.058Z,100650.97
2023-12-03T15:21:00.528Z,100654.84
2023-12-03T15:24:02.966Z,100668.72
2023-12-03T15:27:05.894Z,100666.84
2023-12-03T15:30:09.204Z,100658.34
2023-12-03T15:33:11.655Z,100664.63
2023-12-03T15:36:14.107Z,100659.28
2023-12-03T15:39:16.564Z,100668.22
2023-12-03T15:42:18.994Z,100667.66
2023-12-03T15:45:27.891Z,100669.50
2023-12-03T15:48:30.609Z,100662.59
2023-12-03T15:51:33.570Z,100667.28
2023-12-03T15:54:36.148Z,100669.59
2023-12-03T15:57:38.911Z,100672.16
2023-12-03T16:00:42.283Z,100661.47
2023-12-03T16:03:44.758Z,100669.78
2023-12-03T16:06:47.554Z,100679.19
2023-12-03T16:09:52.814Z,100684.81
2023-12-03T16:12:55.338Z,100686.28
2023-12-03T16:15:57.725Z,100686.38
2023-12-03T16:19:00.502Z,100691.44
2023-12-03T16:22:03.506Z,100689.34
2023-12-03T16:25:06.233Z,100692.50
2023-12-03T16:28:08.891Z,100690.25
2023-12-03T16:31:11.527Z,100700.97
2023-12-03T16:34:15.920Z,100700.94
2023-12-03T16:37:19.996Z,100699.06
2023-12-03T16:40:28.566Z,100708.69
2023-12-03T16:43:32.413Z,100710.72
2023-12-03T16:46:35.446Z,100712.66
2023-12-03T16:49:43.481Z,100709.44
2023-12-03T16:52:46.079Z,100712.66
2023-12-03T16:55:50.286Z,100712.09
2023-12-03T16:58:52.618Z,100715.09
2023-12-03T17:01:56.304Z,100708.28
2023-12-03T17:04:58.834Z,100717.31
2023-12-03T17:08:03.416Z,100717.44
2023-12-03T17:11:06.696Z,100728.75
2023-12-03T17:14:09.742Z,100720.00
2023-12-03T17:17:12.078Z,100722.66
2023-12-03T17:20:14.853Z,100719.47
2023-12-03T17:23:17.621Z,100717.97
2023-12-03T17:26:21.181Z,100723.13
2023-12-03T17:29:23.670Z,100725.25
2023-12-03T17:32:26.118Z,100729.53
2023-12-03T17:35:28.785Z,100738.03
2023-12-03T17:38:31.653Z,100740.53
2023-12-03T17:41:34.002Z,100749.31
2023-12-03T17:44:36.582Z,100749.97
2023-12-03T17:47:40.140Z,100753.31
2023-12-03T17:50:42.578Z,100752.63
2023-12-03T17:53:45.179Z,100752.06
2023-12-03T17:56:47.571Z,100748.91
2023-12-03T17:59:50.635Z,100767.44
2023-12-03T18:02:53.754Z,100754.00
2023-12-03T18:05:56.405Z,100752.69
2023-12-03T18:08:58.762Z,100752.63
2023-12-03T18:12:03.767Z,100759.91
2023-12-03T18:15:06.683Z,100766.94
2023-12-03T18:18:09.158Z,100763.44
2023-12-03T18:21:11.586Z,100764.50
2023-12-03T18:24:13.957Z,100763.81
2023-12-03T18:27:17.066Z,100765.22
2023-12-03T18:30:19.537Z,100776.22
2023-12-03T18:33:22.115Z,100776.06
2023-12-03T18:36:24.561Z,100764.84
2023-12-03T18:39:27.658Z,100769.09
2023-12-03T18:42:29.989Z,100770.72
2023-12-03T18:45:32.383Z,100781.78
2023-12-03T18:48:34.897Z,100780.97
2023-12-03T18:51:37.283Z,100780.06
2023-12-03T18:54:42.314Z,100786.78
2023-12-03T18:57:45.704Z,100786.25
2023-12-03T19:00:48.089Z,100783.03
2023-12-03T19:03:50.462Z,100789.06
2023-12-03T19:06:52.856Z,100785.53
2023-12-03T19:09:55.415Z,100798.78
2023-12-03T19:13:02.677Z,100799.38
2023-12-03T19:16:10.700Z,100792.38
2023-12-03T19:19:14.678Z,100796.44
2023-12-03T19:22:17.165Z,100796.25
2023-12-03T19:25:19.627Z,100806.97
2023-12-03T19:28:23.135Z,100806.38
2023-12-03T19:31:26.293Z,100809.56
2023-12-03T19:34:29.557Z,100810.47
2023-12-03T19:37:32.295Z,100816.63
2023-12-03T19:40:34.667Z,100811.44
2023-12-03T19:43:37.252Z,100813.00
2023-12-03T19:46:39.578Z,100822.16
2023-12-03T19:49:42.206Z,100819.59
2023-12-03T19:52:44.544Z,100829.19
2023-12-03T19:55:47.974Z,100822.28
2023-12-03T19:58:50.477Z,100826.78
2023-12-03T20:01:52.897Z,100838.81
2023-12-03T20:04:55.525Z,100843.13
2023-12-03T20:07:57.930Z,100842.97
2023-12-03T20:11:00.384Z,100842.22
2023-12-03T20:14:03.167Z,100848.44
2023-12-03T20:17:05.690Z,100846.44
2023-12-03T20:20:08.721Z,100850.22
2023-12-03T20:23:11.082Z,100843.47
2023-12-03T20:26:13.647Z,100847.72
2023-12-03T20:29:16.121Z,100849.28
2023-12-03T20:32:18.528Z,100851.38
2023-12-03T20:35:20.889Z,100859.88
2023-12-03T20:38:23.789Z,100850.06
2023-12-03T20:41:26.124Z,100853.66
2023-12-03T20:44:28.447Z,100846.63
2023-12-03T20:47:30.855Z,100844.47
2023-12-03T20:50:35.185Z,100841.53
2023-12-03T20:53:37.961Z,100851.75
2023-12-03T20:56:40.500Z,100859.97
2023-12-03T20:59:42.955Z,100849.88
2023-12-03T21:02:45.710Z,100849.28
2023-12-03T21:05:48.097Z,100849.44
2023-12-03T21:08:51.082Z,100848.84
2023-12-03T21:11:53.496Z,100845.88
2023-12-03T21:14:55.849Z,100863.50
2023-12-03T21:17:58.162Z,100861.13
2023-12-03T21:21:00.547Z,100865.75
2023-12-03T21:24:03.885Z,100868.31
2023-12-03T21:27:06.232Z,100867.06
2023-12-03T21:30:09.150Z,100865.38
2023-12-03T21:33:11.505Z,100867.13
2023-12-03T21:36:14.290Z,100865.84
2023-12-03T21:39:16.582Z,100863.81
2023-12-03T21:42:19.251Z,100861.00
2023-12-03T21:45:22.072Z,100872.16
2023-12-03T21:48:24.573Z,100874.53
2023-12-03T21:51:27.803Z,100867.75
2023-12-03T21:54:30.244Z,100878.75
2023-12-03T21:57:32.862Z,100889.41
2023-12-03T22:00:35.176Z,100892.91
2023-12-03T22:03:37.651Z,100886.09
2023-12-03T22:06:39.985Z,100883.00
2023-12-03T22:09:42.788Z,100877.88
2023-12-03T22:12:45.098Z,100884.25
2023-12-03T22:15:48.924Z,100885.53
2023-12-03T22:18:51.966Z,100900.72
2023-12-03T22:21:54.469Z,100891.59
2023-12-03T22:24:56.893Z,100896.25
2023-12-03T22:27:59.220Z,100894.44
2023-12-03T22:31:01.723Z,100899.25
2023-12-03T22:34:04.142Z,100898.41
2023-12-03T22:37:06.546Z,100894.75
2023-12-03T22:40:10.627Z,100890.94
2023-12-03T22:43:13.137Z,100899.25
2023-12-03T22:46:15.833Z,100893.69
2023-12-03T22:49:18.377Z,100900.84
2023-12-03T22:52:21.161Z,100906.03
2023-12-03T22:55:23.608Z,100904.84
2023-12-03T22:58:25.908Z,100913.84
2023-12-03T23:01:28.859Z,100909.50
2023-12-03T23:04:31.348Z,100911.50
2023-12-03T23:07:33.654Z,100905.06
2023-12-03T23:10:36.257Z,100903.34
2023-12-03T23:13:38.619Z,100908.69
2023-12-03T23:16:44.501Z,100907.19
2023-12-03T23:19:47.251Z,100904.34
2023-12-03T23:22:49.996Z,100909.03
2023-12-03T23:25:52.309Z,100910.50
2023-12-03T23:28:54.632Z,100904.16
2023-12-03T23:31:56.908Z,100911.19
2023-12-03T23:34:59.185Z,100907.47
2023-12-03T23:38:01.944Z,100905.16
2023-12-03T23:41:04.417Z,100913.34
2023-12-03T23:44:06.786Z,100905.88
2023-12-03T23:47:11.309Z,100907.34
2023-12-03T23:50:13.732Z,100923.84
2023-12-03T23:53:16.094Z,100921.22
2023-12-03T23:56:24.701Z,100925.06
2023-12-03T23:59:27.864Z,100906.34
